sensor_id;sensor_type;location;lat;lon;timestamp;P1;durP1;ratioP1;P2;durP2;ratioP2
54743;SDS011;40639;53.170;6.728;2023-03-23T00:01:12;17.42;;;10.07;;
54743;SDS011;40639;53.170;6.728;2023-03-23T00:03:39;14.32;;;9.73;;
54743;SDS011;40639;53.170;6.728;2023-03-23T00:06:06;11.35;;;8.75;;
54743;SDS011;40639;53.170;6.728;2023-03-23T00:08:36;15.27;;;9.73;;
54743;SDS011;40639;53.170;6.728;2023-03-23T00:11:10;15.18;;;9.50;;
54743;SDS011;40639;53.170;6.728;2023-03-23T00:13:36;14.57;;;9.65;;
54743;SDS011;40639;53.170;6.728;2023-03-23T00:16:02;13.18;;;8.82;;
54743;SDS011;40639;53.170;6.728;2023-03-23T00:18:28;12.88;;;9.23;;
54743;SDS011;40639;53.170;6.728;2023-03-23T00:20:55;10.50;;;8.50;;
54743;SDS011;40639;53.170;6.728;2023-03-23T00:23:25;13.35;;;8.25;;
54743;SDS011;40639;53.170;6.728;2023-03-23T00:25:52;13.43;;;7.93;;
54743;SDS011;40639;53.170;6.728;2023-03-23T00:28:21;10.88;;;7.78;;
54743;SDS011;40639;53.170;6.728;2023-03-23T00:31:03;11.05;;;6.95;;
54743;SDS011;40639;53.170;6.728;2023-03-23T00:33:31;12.40;;;7.50;;
54743;SDS011;40639;53.170;6.728;2023-03-23T00:36:03;11.82;;;7.38;;
54743;SDS011;40639;53.170;6.728;2023-03-23T00:38:30;11.25;;;7.10;;
54743;SDS011;40639;53.170;6.728;2023-03-23T00:40:57;13.32;;;7.25;;
54743;SDS011;40639;53.170;6.728;2023-03-23T00:43:29;11.10;;;6.78;;
54743;SDS011;40639;53.170;6.728;2023-03-23T00:45:56;11.63;;;7.47;;
54743;SDS011;40639;53.170;6.728;2023-03-23T00:48:26;12.35;;;7.60;;
54743;SDS011;40639;53.170;6.728;2023-03-23T00:50:52;10.02;;;7.50;;
54743;SDS011;40639;53.170;6.728;2023-03-23T00:53:19;11.52;;;7.13;;
54743;SDS011;40639;53.170;6.728;2023-03-23T00:55:46;12.05;;;7.20;;
54743;SDS011;40639;53.170;6.728;2023-03-23T00:58:12;8.68;;;6.25;;
54743;SDS011;40639;53.170;6.728;2023-03-23T01:00:39;12.10;;;5.70;;
54743;SDS011;40639;53.170;6.728;2023-03-23T01:03:06;9.93;;;6.10;;
54743;SDS011;40639;53.170;6.728;2023-03-23T01:05:34;7.25;;;3.42;;
54743;SDS011;40639;53.170;6.728;2023-03-23T01:08:00;7.53;;;3.78;;
54743;SDS011;40639;53.170;6.728;2023-03-23T01:10:27;3.85;;;3.05;;
54743;SDS011;40639;53.170;6.728;2023-03-23T01:12:53;3.80;;;2.33;;
54743;SDS011;40639;53.170;6.728;2023-03-23T01:15:20;6.78;;;2.63;;
54743;SDS011;40639;53.170;6.728;2023-03-23T01:17:46;3.97;;;2.00;;
54743;SDS011;40639;53.170;6.728;2023-03-23T01:20:13;3.25;;;2.25;;
54743;SDS011;40639;53.170;6.728;2023-03-23T01:22:40;4.05;;;2.30;;
54743;SDS011;40639;53.170;6.728;2023-03-23T01:25:07;5.50;;;3.05;;
54743;SDS011;40639;53.170;6.728;2023-03-23T01:27:33;4.53;;;3.05;;
54743;SDS011;40639;53.170;6.728;2023-03-23T01:30:00;7.22;;;3.50;;
54743;SDS011;40639;53.170;6.728;2023-03-23T01:32:26;9.00;;;4.13;;
54743;SDS011;40639;53.170;6.728;2023-03-23T01:34:52;5.90;;;4.20;;
54743;SDS011;40639;53.170;6.728;2023-03-23T01:37:18;10.75;;;5.35;;
54743;SDS011;40639;53.170;6.728;2023-03-23T01:39:45;8.38;;;4.47;;
54743;SDS011;40639;53.170;6.728;2023-03-23T01:42:11;9.63;;;4.97;;
54743;SDS011;40639;53.170;6.728;2023-03-23T01:47:04;8.80;;;4.85;;
54743;SDS011;40639;53.170;6.728;2023-03-23T01:49:31;8.45;;;5.07;;
54743;SDS011;40639;53.170;6.728;2023-03-23T01:52:00;10.88;;;6.20;;
54743;SDS011;40639;53.170;6.728;2023-03-23T01:54:28;7.72;;;5.75;;
54743;SDS011;40639;53.170;6.728;2023-03-23T01:57:09;8.40;;;4.43;;
54743;SDS011;40639;53.170;6.728;2023-03-23T01:59:38;6.97;;;4.53;;
54743;SDS011;40639;53.170;6.728;2023-03-23T02:02:05;10.57;;;4.68;;
54743;SDS011;40639;53.170;6.728;2023-03-23T02:04:31;7.05;;;3.80;;
54743;SDS011;40639;53.170;6.728;2023-03-23T02:06:59;10.38;;;4.25;;
54743;SDS011;40639;53.170;6.728;2023-03-23T02:09:27;6.85;;;3.72;;
54743;SDS011;40639;53.170;6.728;2023-03-23T02:11:53;8.43;;;5.07;;
54743;SDS011;40639;53.170;6.728;2023-03-23T02:14:19;8.88;;;3.85;;
54743;SDS011;40639;53.170;6.728;2023-03-23T02:19:30;8.23;;;3.58;;
54743;SDS011;40639;53.170;6.728;2023-03-23T02:22:13;9.32;;;4.00;;
54743;SDS011;40639;53.170;6.728;2023-03-23T02:27:36;7.25;;;3.88;;
54743;SDS011;40639;53.170;6.728;2023-03-23T02:30:13;7.07;;;3.20;;
54743;SDS011;40639;53.170;6.728;2023-03-23T02:35:28;8.27;;;3.58;;
54743;SDS011;40639;53.170;6.728;2023-03-23T02:40:27;6.32;;;3.42;;
54743;SDS011;40639;53.170;6.728;2023-03-23T02:42:56;7.40;;;3.58;;
54743;SDS011;40639;53.170;6.728;2023-03-23T02:45:24;7.78;;;3.78;;
54743;SDS011;40639;53.170;6.728;2023-03-23T02:47:53;5.63;;;2.97;;
54743;SDS011;40639;53.170;6.728;2023-03-23T02:50:20;6.95;;;3.15;;
54743;SDS011;40639;53.170;6.728;2023-03-23T02:52:47;4.90;;;2.53;;
54743;SDS011;40639;53.170;6.728;2023-03-23T02:55:14;7.35;;;2.90;;
54743;SDS011;40639;53.170;6.728;2023-03-23T02:57:41;5.45;;;3.20;;
54743;SDS011;40639;53.170;6.728;2023-03-23T03:00:10;7.50;;;3.45;;
54743;SDS011;40639;53.170;6.728;2023-03-23T03:02:39;6.40;;;3.03;;
54743;SDS011;40639;53.170;6.728;2023-03-23T03:10:08;5.63;;;2.97;;
54743;SDS011;40639;53.170;6.728;2023-03-23T03:12:59;8.05;;;3.00;;
54743;SDS011;40639;53.170;6.728;2023-03-23T03:15:27;6.90;;;3.00;;
54743;SDS011;40639;53.170;6.728;2023-03-23T03:17:57;10.15;;;3.10;;
54743;SDS011;40639;53.170;6.728;2023-03-23T03:20:25;7.28;;;2.78;;
54743;SDS011;40639;53.170;6.728;2023-03-23T03:22:52;7.97;;;2.83;;
54743;SDS011;40639;53.170;6.728;2023-03-23T03:25:19;7.53;;;2.78;;
54743;SDS011;40639;53.170;6.728;2023-03-23T03:27:47;5.95;;;2.60;;
54743;SDS011;40639;53.170;6.728;2023-03-23T03:30:20;5.38;;;2.75;;
54743;SDS011;40639;53.170;6.728;2023-03-23T03:32:48;5.50;;;2.45;;
54743;SDS011;40639;53.170;6.728;2023-03-23T03:35:16;4.95;;;2.83;;
54743;SDS011;40639;53.170;6.728;2023-03-23T03:37:42;5.45;;;2.72;;
54743;SDS011;40639;53.170;6.728;2023-03-23T03:40:11;6.15;;;2.25;;
54743;SDS011;40639;53.170;6.728;2023-03-23T03:42:38;5.25;;;2.55;;
54743;SDS011;40639;53.170;6.728;2023-03-23T03:45:06;3.88;;;2.20;;
54743;SDS011;40639;53.170;6.728;2023-03-23T03:47:32;5.63;;;2.72;;
54743;SDS011;40639;53.170;6.728;2023-03-23T03:49:59;5.85;;;2.42;;
54743;SDS011;40639;53.170;6.728;2023-03-23T03:52:25;7.50;;;2.97;;
54743;SDS011;40639;53.170;6.728;2023-03-23T03:54:52;6.30;;;2.60;;
54743;SDS011;40639;53.170;6.728;2023-03-23T03:57:18;4.95;;;2.70;;
54743;SDS011;40639;53.170;6.728;2023-03-23T03:59:45;5.55;;;2.40;;
54743;SDS011;40639;53.170;6.728;2023-03-23T04:02:12;6.65;;;2.60;;
54743;SDS011;40639;53.170;6.728;2023-03-23T04:04:40;5.35;;;3.05;;
54743;SDS011;40639;53.170;6.728;2023-03-23T04:07:06;7.35;;;2.92;;
54743;SDS011;40639;53.170;6.728;2023-03-23T04:09:36;5.82;;;2.85;;
54743;SDS011;40639;53.170;6.728;2023-03-23T04:12:03;6.40;;;2.75;;
54743;SDS011;40639;53.170;6.728;2023-03-23T04:14:29;9.05;;;3.75;;
54743;SDS011;40639;53.170;6.728;2023-03-23T04:16:56;9.00;;;3.47;;
54743;SDS011;40639;53.170;6.728;2023-03-23T04:19:24;5.15;;;2.85;;
54743;SDS011;40639;53.170;6.728;2023-03-23T04:21:50;7.85;;;3.17;;
54743;SDS011;40639;53.170;6.728;2023-03-23T04:24:16;6.50;;;3.42;;
54743;SDS011;40639;53.170;6.728;2023-03-23T04:26:46;8.60;;;3.63;;
54743;SDS011;40639;53.170;6.728;2023-03-23T04:29:12;7.53;;;3.53;;
54743;SDS011;40639;53.170;6.728;2023-03-23T04:31:39;9.65;;;3.28;;
54743;SDS011;40639;53.170;6.728;2023-03-23T04:34:05;12.02;;;2.50;;
54743;SDS011;40639;53.170;6.728;2023-03-23T04:36:31;1.10;;;0.52;;
54743;SDS011;40639;53.170;6.728;2023-03-23T04:39:00;1.38;;;0.45;;
54743;SDS011;40639;53.170;6.728;2023-03-23T04:41:31;0.85;;;0.60;;
54743;SDS011;40639;53.170;6.728;2023-03-23T04:43:58;1.77;;;0.90;;
54743;SDS011;40639;53.170;6.728;2023-03-23T04:46:27;3.17;;;1.23;;
54743;SDS011;40639;53.170;6.728;2023-03-23T04:48:55;3.92;;;2.28;;
54743;SDS011;40639;53.170;6.728;2023-03-23T04:51:23;5.10;;;1.98;;
54743;SDS011;40639;53.170;6.728;2023-03-23T04:53:51;6.72;;;2.22;;
54743;SDS011;40639;53.170;6.728;2023-03-23T04:56:17;5.25;;;2.08;;
54743;SDS011;40639;53.170;6.728;2023-03-23T04:58:44;5.22;;;2.30;;
54743;SDS011;40639;53.170;6.728;2023-03-23T05:01:10;4.18;;;1.63;;
54743;SDS011;40639;53.170;6.728;2023-03-23T05:03:40;5.47;;;2.17;;
54743;SDS011;40639;53.170;6.728;2023-03-23T05:06:07;4.55;;;2.03;;
54743;SDS011;40639;53.170;6.728;2023-03-23T05:08:34;4.57;;;1.80;;
54743;SDS011;40639;53.170;6.728;2023-03-23T05:11:06;7.43;;;2.15;;
54743;SDS011;40639;53.170;6.728;2023-03-23T05:13:33;6.47;;;3.00;;
54743;SDS011;40639;53.170;6.728;2023-03-23T05:16:03;6.28;;;2.70;;
54743;SDS011;40639;53.170;6.728;2023-03-23T05:18:30;5.97;;;2.63;;
54743;SDS011;40639;53.170;6.728;2023-03-23T05:21:01;6.03;;;2.47;;
54743;SDS011;40639;53.170;6.728;2023-03-23T05:23:27;4.20;;;2.25;;
54743;SDS011;40639;53.170;6.728;2023-03-23T05:25:58;4.30;;;2.17;;
54743;SDS011;40639;53.170;6.728;2023-03-23T05:28:28;7.57;;;2.55;;
54743;SDS011;40639;53.170;6.728;2023-03-23T05:30:55;6.70;;;2.40;;
54743;SDS011;40639;53.170;6.728;2023-03-23T05:33:22;9.68;;;2.90;;
54743;SDS011;40639;53.170;6.728;2023-03-23T05:35:48;7.85;;;2.22;;
54743;SDS011;40639;53.170;6.728;2023-03-23T05:38:15;5.55;;;2.17;;
54743;SDS011;40639;53.170;6.728;2023-03-23T05:40:42;5.80;;;1.70;;
54743;SDS011;40639;53.170;6.728;2023-03-23T05:43:08;11.80;;;2.10;;
54743;SDS011;40639;53.170;6.728;2023-03-23T05:45:34;10.30;;;2.38;;
54743;SDS011;40639;53.170;6.728;2023-03-23T05:48:01;7.25;;;1.85;;
54743;SDS011;40639;53.170;6.728;2023-03-23T05:50:27;10.55;;;2.72;;
54743;SDS011;40639;53.170;6.728;2023-03-23T05:52:54;9.40;;;2.20;;
54743;SDS011;40639;53.170;6.728;2023-03-23T05:55:20;6.97;;;2.30;;
54743;SDS011;40639;53.170;6.728;2023-03-23T05:57:46;6.72;;;2.35;;
54743;SDS011;40639;53.170;6.728;2023-03-23T06:00:13;11.10;;;2.30;;
54743;SDS011;40639;53.170;6.728;2023-03-23T06:02:40;10.30;;;2.90;;
54743;SDS011;40639;53.170;6.728;2023-03-23T06:05:10;9.30;;;2.60;;
54743;SDS011;40639;53.170;6.728;2023-03-23T06:07:36;9.18;;;2.15;;
54743;SDS011;40639;53.170;6.728;2023-03-23T06:10:04;11.18;;;2.33;;
54743;SDS011;40639;53.170;6.728;2023-03-23T06:12:30;13.50;;;2.45;;
54743;SDS011;40639;53.170;6.728;2023-03-23T06:14:56;9.50;;;2.45;;
54743;SDS011;40639;53.170;6.728;2023-03-23T06:17:23;9.52;;;2.67;;
54743;SDS011;40639;53.170;6.728;2023-03-23T06:19:49;10.40;;;2.88;;
54743;SDS011;40639;53.170;6.728;2023-03-23T06:22:16;13.05;;;2.60;;
54743;SDS011;40639;53.170;6.728;2023-03-23T06:24:42;8.70;;;2.72;;
54743;SDS011;40639;53.170;6.728;2023-03-23T06:27:09;10.30;;;2.60;;
54743;SDS011;40639;53.170;6.728;2023-03-23T06:29:35;13.50;;;2.75;;
54743;SDS011;40639;53.170;6.728;2023-03-23T06:32:03;14.25;;;2.80;;
54743;SDS011;40639;53.170;6.728;2023-03-23T06:34:30;11.07;;;2.83;;
54743;SDS011;40639;53.170;6.728;2023-03-23T06:36:57;14.85;;;2.35;;
54743;SDS011;40639;53.170;6.728;2023-03-23T06:39:24;12.30;;;2.78;;
54743;SDS011;40639;53.170;6.728;2023-03-23T06:41:50;10.82;;;3.08;;
54743;SDS011;40639;53.170;6.728;2023-03-23T06:44:17;7.38;;;2.13;;
54743;SDS011;40639;53.170;6.728;2023-03-23T06:46:43;12.88;;;2.60;;
54743;SDS011;40639;53.170;6.728;2023-03-23T06:49:09;11.30;;;2.55;;
54743;SDS011;40639;53.170;6.728;2023-03-23T06:51:36;10.50;;;3.13;;
54743;SDS011;40639;53.170;6.728;2023-03-23T06:54:02;10.90;;;2.72;;
54743;SDS011;40639;53.170;6.728;2023-03-23T06:56:28;10.70;;;2.90;;
54743;SDS011;40639;53.170;6.728;2023-03-23T06:58:55;14.48;;;3.03;;
54743;SDS011;40639;53.170;6.728;2023-03-23T07:01:22;11.27;;;2.95;;
54743;SDS011;40639;53.170;6.728;2023-03-23T07:03:48;6.05;;;2.05;;
54743;SDS011;40639;53.170;6.728;2023-03-23T07:06:14;13.70;;;2.28;;
54743;SDS011;40639;53.170;6.728;2023-03-23T07:08:41;10.30;;;2.25;;
54743;SDS011;40639;53.170;6.728;2023-03-23T07:11:07;8.57;;;2.85;;
54743;SDS011;40639;53.170;6.728;2023-03-23T07:13:35;8.13;;;2.25;;
54743;SDS011;40639;53.170;6.728;2023-03-23T07:16:04;7.40;;;1.70;;
54743;SDS011;40639;53.170;6.728;2023-03-23T07:18:31;8.35;;;2.38;;
54743;SDS011;40639;53.170;6.728;2023-03-23T07:20:57;10.43;;;1.98;;
54743;SDS011;40639;53.170;6.728;2023-03-23T07:23:23;9.70;;;2.55;;
54743;SDS011;40639;53.170;6.728;2023-03-23T07:25:49;11.60;;;2.72;;
54743;SDS011;40639;53.170;6.728;2023-03-23T07:28:16;9.93;;;2.88;;
54743;SDS011;40639;53.170;6.728;2023-03-23T07:30:43;12.88;;;3.10;;
54743;SDS011;40639;53.170;6.728;2023-03-23T07:33:09;9.48;;;2.88;;
54743;SDS011;40639;53.170;6.728;2023-03-23T07:35:36;8.32;;;2.95;;
54743;SDS011;40639;53.170;6.728;2023-03-23T07:38:03;19.83;;;4.40;;
54743;SDS011;40639;53.170;6.728;2023-03-23T07:40:30;15.90;;;3.42;;
54743;SDS011;40639;53.170;6.728;2023-03-23T07:42:58;18.67;;;3.85;;
54743;SDS011;40639;53.170;6.728;2023-03-23T07:45:25;16.60;;;3.85;;
54743;SDS011;40639;53.170;6.728;2023-03-23T07:47:52;14.48;;;3.53;;
54743;SDS011;40639;53.170;6.728;2023-03-23T07:50:18;18.13;;;3.92;;
54743;SDS011;40639;53.170;6.728;2023-03-23T07:52:49;21.08;;;3.92;;
54743;SDS011;40639;53.170;6.728;2023-03-23T07:55:16;14.18;;;3.67;;
54743;SDS011;40639;53.170;6.728;2023-03-23T07:57:46;17.95;;;3.30;;
54743;SDS011;40639;53.170;6.728;2023-03-23T08:00:13;15.40;;;3.92;;
54743;SDS011;40639;53.170;6.728;2023-03-23T08:02:45;14.68;;;4.47;;
54743;SDS011;40639;53.170;6.728;2023-03-23T08:05:11;14.85;;;3.47;;
54743;SDS011;40639;53.170;6.728;2023-03-23T08:07:38;13.60;;;3.13;;
54743;SDS011;40639;53.170;6.728;2023-03-23T08:10:05;13.90;;;3.33;;
54743;SDS011;40639;53.170;6.728;2023-03-23T08:12:36;12.18;;;3.30;;
54743;SDS011;40639;53.170;6.728;2023-03-23T08:15:02;12.48;;;3.28;;
54743;SDS011;40639;53.170;6.728;2023-03-23T08:17:29;12.32;;;3.75;;
54743;SDS011;40639;53.170;6.728;2023-03-23T08:19:56;17.35;;;3.88;;
54743;SDS011;40639;53.170;6.728;2023-03-23T08:22:23;18.63;;;4.43;;
54743;SDS011;40639;53.170;6.728;2023-03-23T08:24:50;14.82;;;3.42;;
54743;SDS011;40639;53.170;6.728;2023-03-23T08:27:16;15.43;;;3.75;;
54743;SDS011;40639;53.170;6.728;2023-03-23T08:29:45;13.20;;;3.72;;
54743;SDS011;40639;53.170;6.728;2023-03-23T08:32:12;14.95;;;3.80;;
54743;SDS011;40639;53.170;6.728;2023-03-23T08:34:38;17.05;;;3.50;;
54743;SDS011;40639;53.170;6.728;2023-03-23T08:37:04;12.32;;;3.35;;
54743;SDS011;40639;53.170;6.728;2023-03-23T08:39:31;14.70;;;3.85;;
54743;SDS011;40639;53.170;6.728;2023-03-23T08:41:58;19.73;;;3.70;;
54743;SDS011;40639;53.170;6.728;2023-03-23T08:44:25;13.40;;;3.45;;
54743;SDS011;40639;53.170;6.728;2023-03-23T08:46:51;14.48;;;3.63;;
54743;SDS011;40639;53.170;6.728;2023-03-23T08:49:22;18.35;;;4.65;;
54743;SDS011;40639;53.170;6.728;2023-03-23T08:51:48;15.90;;;3.60;;
54743;SDS011;40639;53.170;6.728;2023-03-23T08:54:15;12.40;;;3.10;;
54743;SDS011;40639;53.170;6.728;2023-03-23T08:56:42;12.88;;;3.45;;
54743;SDS011;40639;53.170;6.728;2023-03-23T08:59:08;14.70;;;3.40;;
54743;SDS011;40639;53.170;6.728;2023-03-23T09:01:35;17.95;;;4.30;;
54743;SDS011;40639;53.170;6.728;2023-03-23T09:04:01;15.10;;;3.83;;
54743;SDS011;40639;53.170;6.728;2023-03-23T09:06:27;17.90;;;3.75;;
54743;SDS011;40639;53.170;6.728;2023-03-23T09:08:53;14.15;;;4.78;;
54743;SDS011;40639;53.170;6.728;2023-03-23T09:11:25;16.35;;;3.90;;
54743;SDS011;40639;53.170;6.728;2023-03-23T09:13:51;16.05;;;3.90;;
54743;SDS011;40639;53.170;6.728;2023-03-23T09:16:17;17.92;;;4.10;;
54743;SDS011;40639;53.170;6.728;2023-03-23T09:18:43;16.02;;;4.05;;
54743;SDS011;40639;53.170;6.728;2023-03-23T09:21:10;16.65;;;4.32;;
54743;SDS011;40639;53.170;6.728;2023-03-23T09:23:37;17.48;;;3.92;;
54743;SDS011;40639;53.170;6.728;2023-03-23T09:26:04;24.48;;;4.30;;
54743;SDS011;40639;53.170;6.728;2023-03-23T09:28:30;17.83;;;4.43;;
54743;SDS011;40639;53.170;6.728;2023-03-23T09:30:56;10.70;;;3.35;;
54743;SDS011;40639;53.170;6.728;2023-03-23T09:33:24;16.63;;;4.45;;
54743;SDS011;40639;53.170;6.728;2023-03-23T09:35:50;17.90;;;3.88;;
54743;SDS011;40639;53.170;6.728;2023-03-23T09:38:17;22.17;;;4.20;;
54743;SDS011;40639;53.170;6.728;2023-03-23T09:43:58;17.98;;;4.20;;
54743;SDS011;40639;53.170;6.728;2023-03-23T09:51:51;10.02;;;3.47;;
54743;SDS011;40639;53.170;6.728;2023-03-23T09:54:28;17.98;;;3.28;;
54743;SDS011;40639;53.170;6.728;2023-03-23T09:56:55;14.73;;;4.05;;
54743;SDS011;40639;53.170;6.728;2023-03-23T09:59:30;10.60;;;3.13;;
54743;SDS011;40639;53.170;6.728;2023-03-23T10:01:59;9.02;;;2.80;;
54743;SDS011;40639;53.170;6.728;2023-03-23T10:04:41;12.60;;;3.75;;
54743;SDS011;40639;53.170;6.728;2023-03-23T10:07:19;11.88;;;3.33;;
54743;SDS011;40639;53.170;6.728;2023-03-23T10:09:46;12.68;;;3.45;;
54743;SDS011;40639;53.170;6.728;2023-03-23T10:15:20;14.05;;;3.20;;
54743;SDS011;40639;53.170;6.728;2023-03-23T10:28:21;13.88;;;2.88;;
54743;SDS011;40639;53.170;6.728;2023-03-23T10:30:48;13.73;;;3.17;;
54743;SDS011;40639;53.170;6.728;2023-03-23T10:33:20;11.30;;;3.08;;
54743;SDS011;40639;53.170;6.728;2023-03-23T10:35:50;14.30;;;2.83;;
54743;SDS011;40639;53.170;6.728;2023-03-23T10:38:19;12.43;;;2.80;;
54743;SDS011;40639;53.170;6.728;2023-03-23T10:40:50;12.15;;;3.20;;
54743;SDS011;40639;53.170;6.728;2023-03-23T10:43:20;20.20;;;3.08;;
54743;SDS011;40639;53.170;6.728;2023-03-23T10:45:49;11.73;;;3.20;;
54743;SDS011;40639;53.170;6.728;2023-03-23T10:48:17;10.23;;;2.85;;
54743;SDS011;40639;53.170;6.728;2023-03-23T10:50:46;11.13;;;3.08;;
54743;SDS011;40639;53.170;6.728;2023-03-23T10:53:19;12.40;;;2.78;;
54743;SDS011;40639;53.170;6.728;2023-03-23T10:55:47;9.75;;;3.10;;
54743;SDS011;40639;53.170;6.728;2023-03-23T10:58:23;18.85;;;3.35;;
54743;SDS011;40639;53.170;6.728;2023-03-23T11:00:50;11.38;;;2.60;;
54743;SDS011;40639;53.170;6.728;2023-03-23T11:08:19;9.63;;;2.80;;
54743;SDS011;40639;53.170;6.728;2023-03-23T11:10:50;12.57;;;2.67;;
54743;SDS011;40639;53.170;6.728;2023-03-23T11:13:18;9.45;;;2.45;;
54743;SDS011;40639;53.170;6.728;2023-03-23T11:15:46;10.73;;;2.38;;
54743;SDS011;40639;53.170;6.728;2023-03-23T11:18:18;11.88;;;3.38;;
54743;SDS011;40639;53.170;6.728;2023-03-23T11:20:45;10.82;;;2.60;;
54743;SDS011;40639;53.170;6.728;2023-03-23T11:23:47;9.98;;;2.10;;
54743;SDS011;40639;53.170;6.728;2023-03-23T11:26:27;9.80;;;2.28;;
54743;SDS011;40639;53.170;6.728;2023-03-23T11:31:30;13.35;;;2.80;;
54743;SDS011;40639;53.170;6.728;2023-03-23T11:33:58;9.35;;;2.65;;
54743;SDS011;40639;53.170;6.728;2023-03-23T11:37:01;11.43;;;2.63;;
54743;SDS011;40639;53.170;6.728;2023-03-23T11:39:19;7.22;;;2.05;;
54743;SDS011;40639;53.170;6.728;2023-03-23T11:41:46;14.77;;;3.40;;
54743;SDS011;40639;53.170;6.728;2023-03-23T11:44:13;9.70;;;2.15;;
54743;SDS011;40639;53.170;6.728;2023-03-23T11:46:42;9.82;;;2.20;;
54743;SDS011;40639;53.170;6.728;2023-03-23T11:49:18;9.68;;;2.20;;
54743;SDS011;40639;53.170;6.728;2023-03-23T11:51:55;7.60;;;2.17;;
54743;SDS011;40639;53.170;6.728;2023-03-23T11:54:28;6.53;;;1.77;;
54743;SDS011;40639;53.170;6.728;2023-03-23T11:56:54;9.10;;;1.77;;
54743;SDS011;40639;53.170;6.728;2023-03-23T11:59:54;8.85;;;2.20;;
54743;SDS011;40639;53.170;6.728;2023-03-23T12:05:07;4.88;;;1.80;;
54743;SDS011;40639;53.170;6.728;2023-03-23T12:15:45;8.35;;;1.90;;
54743;SDS011;40639;53.170;6.728;2023-03-23T12:18:23;6.20;;;1.88;;
54743;SDS011;40639;53.170;6.728;2023-03-23T12:26:15;9.77;;;1.95;;
54743;SDS011;40639;53.170;6.728;2023-03-23T12:34:10;8.10;;;2.00;;
54743;SDS011;40639;53.170;6.728;2023-03-23T12:44:27;7.68;;;2.20;;
54743;SDS011;40639;53.170;6.728;2023-03-23T12:49:36;7.97;;;2.38;;
54743;SDS011;40639;53.170;6.728;2023-03-23T12:54:38;8.40;;;2.22;;
54743;SDS011;40639;53.170;6.728;2023-03-23T12:57:12;7.95;;;1.73;;
54743;SDS011;40639;53.170;6.728;2023-03-23T12:59:53;7.03;;;2.10;;
54743;SDS011;40639;53.170;6.728;2023-03-23T13:02:23;9.30;;;2.08;;
54743;SDS011;40639;53.170;6.728;2023-03-23T13:04:54;7.22;;;2.35;;
54743;SDS011;40639;53.170;6.728;2023-03-23T13:07:24;5.85;;;2.17;;
54743;SDS011;40639;53.170;6.728;2023-03-23T13:09:54;11.20;;;2.17;;
54743;SDS011;40639;53.170;6.728;2023-03-23T13:12:22;5.28;;;1.58;;
54743;SDS011;40639;53.170;6.728;2023-03-23T13:15:08;8.15;;;2.00;;
54743;SDS011;40639;53.170;6.728;2023-03-23T13:22:58;9.23;;;2.80;;
54743;SDS011;40639;53.170;6.728;2023-03-23T13:28:01;10.70;;;2.27;;
54743;SDS011;40639;53.170;6.728;2023-03-23T13:30:28;8.88;;;2.03;;
54743;SDS011;40639;53.170;6.728;2023-03-23T13:33:04;9.38;;;2.08;;
54743;SDS011;40639;53.170;6.728;2023-03-23T13:35:33;11.20;;;3.00;;
54743;SDS011;40639;53.170;6.728;2023-03-23T13:38:00;9.98;;;2.47;;
54743;SDS011;40639;53.170;6.728;2023-03-23T13:40:28;9.93;;;2.45;;
54743;SDS011;40639;53.170;6.728;2023-03-23T13:42:55;8.10;;;2.35;;
54743;SDS011;40639;53.170;6.728;2023-03-23T13:48:05;8.57;;;1.90;;
54743;SDS011;40639;53.170;6.728;2023-03-23T13:50:42;8.77;;;2.35;;
54743;SDS011;40639;53.170;6.728;2023-03-23T13:53:13;12.10;;;3.40;;
54743;SDS011;40639;53.170;6.728;2023-03-23T13:55:40;11.80;;;2.40;;
54743;SDS011;40639;53.170;6.728;2023-03-23T14:00:35;10.82;;;2.83;;
54743;SDS011;40639;53.170;6.728;2023-03-23T14:05:32;10.40;;;2.60;;
54743;SDS011;40639;53.170;6.728;2023-03-23T14:10:36;13.23;;;2.63;;
54743;SDS011;40639;53.170;6.728;2023-03-23T14:13:03;12.93;;;3.17;;
54743;SDS011;40639;53.170;6.728;2023-03-23T14:15:30;19.27;;;3.75;;
54743;SDS011;40639;53.170;6.728;2023-03-23T14:17:57;11.43;;;2.92;;
54743;SDS011;40639;53.170;6.728;2023-03-23T14:20:30;9.68;;;1.90;;
54743;SDS011;40639;53.170;6.728;2023-03-23T14:22:58;12.75;;;2.75;;
54743;SDS011;40639;53.170;6.728;2023-03-23T14:25:26;8.73;;;2.50;;
54743;SDS011;40639;53.170;6.728;2023-03-23T14:27:53;8.63;;;1.80;;
54743;SDS011;40639;53.170;6.728;2023-03-23T14:30:23;10.32;;;2.25;;
54743;SDS011;40639;53.170;6.728;2023-03-23T14:32:53;8.10;;;2.47;;
54743;SDS011;40639;53.170;6.728;2023-03-23T14:35:30;10.52;;;2.25;;
54743;SDS011;40639;53.170;6.728;2023-03-23T14:37:57;6.70;;;2.10;;
54743;SDS011;40639;53.170;6.728;2023-03-23T14:40:26;8.88;;;2.20;;
54743;SDS011;40639;53.170;6.728;2023-03-23T14:42:52;10.13;;;2.03;;
54743;SDS011;40639;53.170;6.728;2023-03-23T14:45:20;7.97;;;1.70;;
54743;SDS011;40639;53.170;6.728;2023-03-23T14:48:00;7.38;;;1.90;;
54743;SDS011;40639;53.170;6.728;2023-03-23T14:50:29;9.43;;;2.00;;
54743;SDS011;40639;53.170;6.728;2023-03-23T14:52:59;7.47;;;1.73;;
54743;SDS011;40639;53.170;6.728;2023-03-23T14:55:26;8.43;;;2.53;;
54743;SDS011;40639;53.170;6.728;2023-03-23T14:57:55;8.98;;;1.75;;
54743;SDS011;40639;53.170;6.728;2023-03-23T15:00:33;9.32;;;1.70;;
54743;SDS011;40639;53.170;6.728;2023-03-23T15:03:01;9.80;;;2.28;;
54743;SDS011;40639;53.170;6.728;2023-03-23T15:05:36;9.15;;;2.20;;
54743;SDS011;40639;53.170;6.728;2023-03-23T15:08:12;6.88;;;1.92;;
54743;SDS011;40639;53.170;6.728;2023-03-23T15:10:40;9.90;;;2.15;;
54743;SDS011;40639;53.170;6.728;2023-03-23T15:13:08;7.93;;;2.00;;
54743;SDS011;40639;53.170;6.728;2023-03-23T15:15:35;8.88;;;2.35;;
54743;SDS011;40639;53.170;6.728;2023-03-23T15:18:02;5.43;;;1.90;;
54743;SDS011;40639;53.170;6.728;2023-03-23T15:20:47;9.60;;;2.28;;
54743;SDS011;40639;53.170;6.728;2023-03-23T15:23:15;5.22;;;1.40;;
54743;SDS011;40639;53.170;6.728;2023-03-23T15:25:47;4.90;;;1.63;;
54743;SDS011;40639;53.170;6.728;2023-03-23T15:28:15;8.63;;;1.77;;
54743;SDS011;40639;53.170;6.728;2023-03-23T15:30:52;6.28;;;1.75;;
54743;SDS011;40639;53.170;6.728;2023-03-23T15:33:19;5.28;;;1.60;;
54743;SDS011;40639;53.170;6.728;2023-03-23T15:35:51;5.95;;;1.60;;
54743;SDS011;40639;53.170;6.728;2023-03-23T15:38:22;10.32;;;2.65;;
54743;SDS011;40639;53.170;6.728;2023-03-23T15:40:49;5.53;;;1.55;;
54743;SDS011;40639;53.170;6.728;2023-03-23T15:43:20;4.63;;;1.55;;
54743;SDS011;40639;53.170;6.728;2023-03-23T15:48:19;5.53;;;1.55;;
54743;SDS011;40639;53.170;6.728;2023-03-23T15:50:46;6.88;;;1.67;;
54743;SDS011;40639;53.170;6.728;2023-03-23T15:53:25;8.50;;;1.83;;
54743;SDS011;40639;53.170;6.728;2023-03-23T15:55:52;6.68;;;1.80;;
54743;SDS011;40639;53.170;6.728;2023-03-23T15:58:18;4.90;;;1.50;;
54743;SDS011;40639;53.170;6.728;2023-03-23T16:00:45;8.38;;;2.15;;
54743;SDS011;40639;53.170;6.728;2023-03-23T16:03:12;7.90;;;1.95;;
54743;SDS011;40639;53.170;6.728;2023-03-23T16:05:40;6.38;;;1.80;;
54743;SDS011;40639;53.170;6.728;2023-03-23T16:08:07;6.25;;;1.90;;
54743;SDS011;40639;53.170;6.728;2023-03-23T16:10:34;7.75;;;1.85;;
54743;SDS011;40639;53.170;6.728;2023-03-23T16:13:00;7.65;;;1.92;;
54743;SDS011;40639;53.170;6.728;2023-03-23T16:15:29;8.60;;;1.75;;
54743;SDS011;40639;53.170;6.728;2023-03-23T16:17:55;7.65;;;2.03;;
54743;SDS011;40639;53.170;6.728;2023-03-23T16:20:22;7.75;;;1.95;;
54743;SDS011;40639;53.170;6.728;2023-03-23T16:22:49;6.85;;;1.73;;
54743;SDS011;40639;53.170;6.728;2023-03-23T16:25:16;10.60;;;2.45;;
54743;SDS011;40639;53.170;6.728;2023-03-23T16:27:43;8.82;;;1.80;;
54743;SDS011;40639;53.170;6.728;2023-03-23T16:30:18;9.75;;;2.53;;
54743;SDS011;40639;53.170;6.728;2023-03-23T16:32:45;8.75;;;1.95;;
54743;SDS011;40639;53.170;6.728;2023-03-23T16:35:11;8.98;;;2.25;;